createdAt,value
2022-09-24T00:02:16.527Z,12.70
2022-09-24T00:04:43.026Z,11.10
2022-09-24T00:07:09.410Z,12.82
2022-09-24T00:09:35.865Z,12.90
2022-09-24T00:12:02.366Z,13.68
2022-09-24T00:14:28.744Z,13.55
2022-09-24T00:16:55.114Z,12.32
2022-09-24T00:19:21.476Z,12.40
2022-09-24T00:21:48.073Z,13.63
2022-09-24T00:24:36.171Z,16.80
2022-09-24T00:27:03.990Z,15.52
2022-09-24T00:29:33.897Z,13.73
2022-09-24T00:32:00.379Z,15.68
2022-09-24T00:34:26.959Z,16.98
2022-09-24T00:36:53.422Z,16.08
2022-09-24T00:39:19.786Z,17.00
2022-09-24T00:41:49.184Z,16.55
2022-09-24T00:44:40.737Z,16.02
2022-09-24T00:47:17.309Z,16.20
2022-09-24T00:49:44.159Z,17.80
2022-09-24T00:52:10.707Z,16.35
2022-09-24T00:54:37.409Z,17.67
2022-09-24T00:57:04.107Z,17.63
2022-09-24T00:59:30.872Z,17.67
2022-09-24T01:01:59.173Z,19.42
2022-09-24T01:04:27.186Z,21.80
2022-09-24T01:06:54.115Z,20.42
2022-09-24T01:09:21.729Z,18.75
2022-09-24T01:12:09.327Z,18.10
2022-09-24T01:14:52.112Z,18.35
2022-09-24T01:17:56.562Z,18.42
2022-09-24T01:20:59.687Z,19.33
2022-09-24T01:26:36.809Z,19.23
2022-09-24T01:29:24.481Z,17.88
2022-09-24T01:32:13.810Z,18.90
2022-09-24T01:34:43.686Z,20.65
2022-09-24T01:37:14.015Z,17.80
2022-09-24T01:39:41.660Z,20.27
2022-09-24T01:42:09.395Z,17.77
2022-09-24T01:44:37.492Z,19.83
2022-09-24T01:47:06.273Z,19.05
2022-09-24T01:49:32.908Z,18.02
2022-09-24T01:52:01.399Z,30.52
2022-09-24T01:54:50.279Z,22.88
2022-09-24T01:57:27.693Z,16.70
2022-09-24T02:00:05.625Z,16.83
2022-09-24T02:02:45.250Z,17.98
2022-09-24T02:05:29.333Z,18.42
2022-09-24T02:08:04.423Z,17.95
2022-09-24T02:10:34.681Z,19.13
2022-09-24T02:13:05.104Z,21.00
2022-09-24T02:15:37.818Z,18.63
2022-09-24T02:18:08.303Z,22.15
2022-09-24T02:20:36.198Z,20.80
2022-09-24T02:23:03.539Z,19.30
2022-09-24T02:25:35.206Z,18.52
2022-09-24T02:28:03.162Z,22.17
2022-09-24T02:30:34.170Z,20.00
2022-09-24T02:33:00.706Z,18.60
2022-09-24T02:35:27.145Z,21.42
2022-09-24T02:37:53.635Z,18.02
2022-09-24T02:40:20.118Z,18.88
2022-09-24T02:42:46.627Z,20.58
2022-09-24T02:45:13.097Z,20.20
2022-09-24T02:47:39.555Z,21.05
2022-09-24T02:50:06.929Z,20.65
2022-09-24T02:52:33.411Z,17.58
2022-09-24T02:54:59.765Z,19.73
2022-09-24T02:57:26.142Z,20.38
2022-09-24T02:59:52.531Z,19.25
2022-09-24T03:02:18.977Z,19.13
2022-09-24T03:04:46.312Z,17.08
2022-09-24T03:07:14.511Z,17.70
2022-09-24T03:09:41.023Z,16.88
2022-09-24T03:12:07.408Z,18.92
2022-09-24T03:14:33.799Z,21.02
2022-09-24T03:17:00.204Z,20.33
2022-09-24T03:19:26.610Z,19.77
2022-09-24T03:21:53.036Z,19.15
2022-09-24T03:24:19.551Z,20.17
2022-09-24T03:26:45.942Z,20.52
2022-09-24T03:29:12.335Z,18.90
2022-09-24T03:31:38.808Z,22.40
2022-09-24T03:34:05.280Z,20.15
2022-09-24T03:36:31.688Z,20.42
2022-09-24T03:38:58.139Z,18.10
2022-09-24T03:41:26.623Z,19.52
2022-09-24T03:43:53.387Z,19.30
2022-09-24T03:46:19.921Z,20.08
2022-09-24T03:48:47.342Z,20.77
2022-09-24T03:51:15.986Z,22.20
2022-09-24T03:53:42.560Z,19.92
2022-09-24T03:56:09.476Z,21.67
2022-09-24T03:58:38.652Z,18.67
2022-09-24T04:01:06.895Z,19.67
2022-09-24T04:03:33.347Z,19.98
2022-09-24T04:05:59.772Z,19.70
2022-09-24T04:08:26.284Z,19.60
2022-09-24T04:10:53.038Z,19.00
2022-09-24T04:13:19.896Z,20.95
2022-09-24T04:15:46.329Z,21.92
2022-09-24T04:18:12.848Z,22.00
2022-09-24T04:20:39.743Z,18.42
2022-09-24T04:23:06.376Z,20.50
2022-09-24T04:25:33.546Z,19.30
2022-09-24T04:28:02.885Z,19.77
2022-09-24T04:30:30.428Z,20.13
2022-09-24T04:32:59.832Z,18.55
2022-09-24T04:35:27.369Z,23.20
2022-09-24T04:37:53.717Z,25.27
2022-09-24T04:40:20.175Z,23.00
2022-09-24T04:42:46.629Z,25.45
2022-09-24T04:45:14.605Z,23.30
2022-09-24T04:47:41.744Z,26.55
2022-09-24T04:50:09.693Z,26.08
2022-09-24T04:52:36.082Z,24.55
2022-09-24T04:55:02.585Z,23.38
2022-09-24T04:57:35.929Z,26.10
2022-09-24T05:00:05.646Z,26.60
2022-09-24T05:02:32.182Z,25.70
2022-09-24T05:04:58.906Z,23.48
2022-09-24T05:07:25.293Z,26.23
2022-09-24T05:09:51.729Z,24.50
2022-09-24T05:12:20.502Z,28.58
2022-09-24T05:14:46.956Z,26.63
2022-09-24T05:17:13.438Z,25.17
2022-09-24T05:19:39.836Z,24.27
2022-09-24T05:22:06.283Z,32.05
2022-09-24T05:24:32.678Z,23.55
2022-09-24T05:27:11.164Z,24.90
2022-09-24T05:29:43.372Z,21.60
2022-09-24T05:32:12.227Z,23.25
2022-09-24T05:34:38.981Z,28.33
2022-09-24T05:37:05.604Z,24.10
2022-09-24T05:39:34.118Z,26.55
2022-09-24T05:42:01.792Z,24.20
2022-09-24T05:44:28.189Z,25.77
2022-09-24T05:46:54.738Z,26.05
2022-09-24T05:49:21.266Z,25.00
2022-09-24T05:51:49.248Z,25.45
2022-09-24T05:54:19.093Z,23.23
2022-09-24T05:56:45.685Z,26.55
2022-09-24T05:59:12.358Z,24.88
2022-09-24T06:01:38.955Z,27.17
2022-09-24T06:04:08.867Z,24.50
2022-09-24T06:06:35.920Z,25.35
2022-09-24T06:09:02.336Z,24.85
2022-09-24T06:11:29.539Z,26.42
2022-09-24T06:13:55.913Z,27.17
2022-09-24T06:16:22.395Z,25.30
2022-09-24T06:18:49.011Z,25.23
2022-09-24T06:21:17.691Z,25.60
2022-09-24T06:23:45.377Z,26.67
2022-09-24T06:26:13.188Z,25.20
2022-09-24T06:28:40.503Z,25.55
2022-09-24T06:31:07.595Z,30.00
2022-09-24T06:33:34.284Z,25.33
2022-09-24T06:36:01.982Z,26.00
2022-09-24T06:38:28.873Z,27.60
2022-09-24T06:40:59.541Z,31.35
2022-09-24T06:43:26.018Z,30.73
2022-09-24T06:45:55.451Z,28.23
2022-09-24T06:48:22.646Z,26.08
2022-09-24T06:50:50.103Z,31.60
2022-09-24T06:53:16.539Z,27.90
2022-09-24T06:55:42.913Z,26.50
2022-09-24T06:58:14.924Z,27.55
2022-09-24T07:00:42.941Z,28.33
2022-09-24T07:03:14.170Z,27.63
2022-09-24T07:05:43.549Z,33.88
2022-09-24T07:08:10.452Z,33.22
2022-09-24T07:10:39.658Z,39.42
2022-09-24T07:13:06.052Z,37.47
2022-09-24T07:15:32.421Z,36.35
2022-09-24T07:17:58.852Z,36.65
2022-09-24T07:20:28.288Z,40.08
2022-09-24T07:22:55.828Z,36.38
2022-09-24T07:25:22.547Z,37.85
2022-09-24T07:27:48.918Z,40.00
2022-09-24T07:30:15.612Z,33.63
2022-09-24T07:32:41.977Z,34.15
2022-09-24T07:35:09.130Z,35.63
2022-09-24T07:37:35.565Z,42.22
2022-09-24T07:40:01.994Z,36.20
2022-09-24T07:42:29.034Z,34.35
2022-09-24T07:44:56.600Z,40.33
2022-09-24T07:47:23.185Z,42.03
2022-09-24T07:49:49.604Z,37.97
2022-09-24T07:52:16.060Z,39.83
2022-09-24T07:54:42.551Z,43.38
2022-09-24T07:57:15.541Z,41.78
2022-09-24T07:59:42.282Z,45.58
2022-09-24T08:02:16.951Z,41.72
2022-09-24T08:04:44.518Z,40.28
2022-09-24T08:07:12.163Z,43.53
2022-09-24T08:09:38.760Z,41.70
2022-09-24T08:12:06.129Z,44.42
2022-09-24T08:14:32.613Z,44.50
2022-09-24T08:16:59.193Z,44.42
2022-09-24T08:19:25.674Z,40.30
2022-09-24T08:21:52.152Z,37.92
2022-09-24T08:24:18.598Z,35.55
2022-09-24T08:26:45.010Z,32.92
2022-09-24T08:29:11.635Z,33.88
2022-09-24T08:31:38.091Z,31.40
2022-09-24T08:34:04.660Z,28.80
2022-09-24T08:36:31.103Z,28.17
2022-09-24T08:38:57.548Z,29.77
2022-09-24T08:41:44.616Z,26.20
2022-09-24T08:44:36.424Z,28.48
2022-09-24T08:47:23.502Z,25.88
2022-09-24T08:49:58.472Z,25.30
2022-09-24T08:52:41.686Z,25.52
2022-09-24T08:55:35.550Z,24.10
2022-09-24T08:58:28.979Z,26.17
2022-09-24T09:01:15.769Z,26.33
2022-09-24T09:03:49.414Z,26.90
2022-09-24T09:06:35.636Z,27.80
2022-09-24T09:09:13.132Z,26.35
2022-09-24T09:11:42.383Z,27.38
2022-09-24T09:14:20.612Z,27.10
2022-09-24T09:17:03.125Z,24.30
2022-09-24T09:19:34.265Z,25.45
2022-09-24T09:22:22.833Z,27.55
2022-09-24T09:24:51.628Z,22.80
2022-09-24T09:27:19.304Z,23.00
2022-09-24T09:29:48.428Z,22.25
2022-09-24T09:32:40.112Z,20.35
2022-09-24T09:35:19.545Z,23.70
2022-09-24T09:37:57.830Z,22.67
2022-09-24T09:40:32.595Z,20.20
2022-09-24T09:43:04.296Z,21.05
2022-09-24T09:45:55.614Z,20.63
2022-09-24T09:48:26.170Z,22.92
2022-09-24T09:50:59.314Z,22.23
2022-09-24T09:53:31.195Z,22.63
2022-09-24T09:56:06.449Z,23.35
2022-09-24T09:58:34.876Z,20.42
2022-09-24T10:01:13.166Z,21.38
2022-09-24T10:03:47.545Z,18.58
2022-09-24T10:06:22.586Z,19.38
2022-09-24T10:08:49.037Z,20.60
2022-09-24T10:11:16.706Z,19.67
2022-09-24T10:13:43.254Z,20.83
2022-09-24T10:16:10.513Z,22.65
2022-09-24T10:18:46.788Z,22.08
2022-09-24T10:21:36.732Z,20.85
2022-09-24T10:24:06.858Z,22.25
2022-09-24T10:26:43.870Z,25.05
2022-09-24T10:29:36.090Z,23.85
2022-09-24T10:32:03.996Z,27.08
2022-09-24T10:34:30.456Z,25.80
2022-09-24T10:37:13.860Z,27.63
2022-09-24T10:39:40.750Z,26.67
2022-09-24T10:42:23.232Z,26.17
2022-09-24T10:44:52.821Z,26.00
2022-09-24T10:47:25.492Z,26.60
2022-09-24T10:49:57.639Z,27.60
2022-09-24T10:52:42.336Z,35.88
2022-09-24T10:55:20.668Z,35.25
2022-09-24T10:57:59.813Z,27.92
2022-09-24T11:00:40.447Z,27.15
2022-09-24T11:03:29.725Z,29.90
2022-09-24T11:06:25.047Z,31.92
2022-09-24T11:08:51.509Z,29.52
2022-09-24T11:11:23.902Z,33.55
2022-09-24T11:14:29.110Z,33.97
2022-09-24T11:17:10.794Z,28.67
2022-09-24T11:20:00.255Z,28.17
2022-09-24T11:22:46.137Z,26.67
2022-09-24T11:25:31.507Z,28.58
2022-09-24T11:28:16.317Z,26.02
2022-09-24T11:31:07.150Z,26.92
2022-09-24T11:33:54.939Z,27.92
2022-09-24T11:36:30.541Z,26.60
2022-09-24T11:39:15.744Z,30.70
2022-09-24T11:41:49.736Z,29.33
2022-09-24T11:44:34.348Z,28.92
2022-09-24T11:47:12.623Z,29.25
2022-09-24T11:49:59.254Z,26.95
2022-09-24T11:52:32.653Z,28.08
2022-09-24T11:55:19.279Z,28.95
2022-09-24T11:58:26.018Z,28.95
2022-09-24T12:00:59.421Z,29.30
2022-09-24T12:03:41.837Z,30.05
2022-09-24T12:06:17.857Z,31.73
2022-09-24T12:08:51.098Z,32.60
2022-09-24T12:11:33.234Z,30.60
2022-09-24T12:14:16.844Z,35.53
2022-09-24T12:16:44.394Z,32.33
2022-09-24T12:19:17.073Z,31.73
2022-09-24T12:21:46.244Z,33.53
2022-09-24T12:24:20.528Z,35.15
2022-09-24T12:26:47.720Z,32.72
2022-09-24T12:29:57.203Z,34.15
2022-09-24T12:32:56.549Z,36.08
2022-09-24T12:35:49.494Z,35.40
2022-09-24T12:41:11.986Z,39.45
2022-09-24T12:43:58.210Z,39.05
2022-09-24T12:46:30.050Z,42.38
2022-09-24T12:48:56.570Z,42.15
2022-09-24T12:51:23.887Z,44.30
2022-09-24T12:53:58.919Z,41.38
2022-09-24T12:56:29.612Z,42.80
2022-09-24T12:58:56.861Z,41.38
2022-09-24T13:01:23.252Z,41.28
2022-09-24T13:04:14.999Z,38.92
2022-09-24T13:06:43.726Z,38.58
2022-09-24T13:09:34.922Z,39.97
2022-09-24T13:12:21.999Z,41.20
2022-09-24T13:15:00.840Z,38.90
2022-09-24T13:17:27.392Z,38.92
2022-09-24T13:19:59.150Z,40.20
2022-09-24T13:22:34.933Z,39.00
2022-09-24T13:25:07.649Z,39.65
2022-09-24T13:27:42.104Z,40.25
2022-09-24T13:30:08.454Z,37.38
2022-09-24T13:32:43.728Z,39.58
2022-09-24T13:35:21.020Z,39.70
2022-09-24T13:37:57.751Z,39.80
2022-09-24T13:40:30.068Z,42.33
2022-09-24T13:43:07.248Z,43.88
2022-09-24T13:45:34.032Z,43.92
2022-09-24T13:48:05.186Z,44.38
2022-09-24T13:50:35.835Z,45.15
2022-09-24T13:53:07.891Z,46.55
2022-09-24T13:55:45.838Z,46.30
2022-09-24T13:58:31.886Z,50.15
2022-09-24T14:01:08.762Z,49.95
2022-09-24T14:03:39.180Z,50.63
2022-09-24T14:06:16.102Z,45.83
2022-09-24T14:08:44.551Z,46.90
2022-09-24T14:11:17.597Z,43.75
2022-09-24T14:13:47.209Z,43.28
2022-09-24T14:16:19.073Z,43.13
2022-09-24T14:18:46.164Z,42.08
2022-09-24T14:21:27.697Z,42.63
2022-09-24T14:24:00.227Z,41.05
2022-09-24T14:29:00.193Z,39.97
2022-09-24T14:31:27.095Z,36.35
2022-09-24T14:33:53.658Z,38.55
2022-09-24T14:36:27.571Z,36.15
2022-09-24T14:38:59.884Z,32.90
2022-09-24T14:41:29.613Z,32.33
2022-09-24T14:44:06.242Z,30.30
2022-09-24T14:46:34.405Z,30.55
2022-09-24T14:49:18.632Z,29.25
2022-09-24T14:52:02.134Z,29.13
2022-09-24T14:54:34.581Z,29.73
2022-09-24T14:57:19.194Z,28.83
2022-09-24T14:59:46.678Z,28.40
2022-09-24T15:02:22.427Z,31.73
2022-09-24T15:04:52.162Z,30.15
2022-09-24T15:07:22.113Z,30.50
2022-09-24T15:09:53.684Z,31.33
2022-09-24T15:12:24.795Z,31.87
2022-09-24T15:14:56.837Z,30.45
2022-09-24T15:17:27.064Z,29.98
2022-09-24T15:19:56.131Z,29.92
2022-09-24T15:22:22.581Z,30.20
2022-09-24T15:24:49.187Z,31.60
2022-09-24T15:27:21.506Z,33.13
2022-09-24T15:29:48.058Z,33.13
2022-09-24T15:32:16.459Z,32.55
2022-09-24T15:34:42.939Z,31.85
2022-09-24T15:37:12.029Z,34.47
2022-09-24T15:39:38.857Z,31.85
2022-09-24T15:42:05.328Z,34.20
2022-09-24T15:44:34.216Z,34.97
2022-09-24T15:47:00.806Z,36.78
2022-09-24T15:49:27.306Z,33.88
2022-09-24T15:51:57.457Z,34.55
2022-09-24T15:54:24.913Z,38.05
2022-09-24T15:56:54.537Z,37.00
2022-09-24T15:59:21.839Z,37.35
2022-09-24T16:01:49.566Z,38.70
2022-09-24T16:04:16.856Z,34.80
2022-09-24T16:06:43.347Z,34.15
2022-09-24T16:09:09.936Z,30.35
2022-09-24T16:11:36.443Z,32.45
2022-09-24T16:14:02.858Z,29.45
2022-09-24T16:16:29.323Z,28.80
2022-09-24T16:18:55.729Z,32.25
2022-09-24T16:21:22.230Z,33.33
2022-09-24T16:23:54.585Z,32.05
2022-09-24T16:26:20.988Z,32.90
2022-09-24T16:28:49.322Z,30.00
2022-09-24T16:31:15.831Z,29.55
2022-09-24T16:33:42.362Z,26.67
2022-09-24T16:36:09.289Z,26.45
2022-09-24T16:38:36.602Z,27.52
2022-09-24T16:41:03.530Z,27.45
2022-09-24T16:43:30.041Z,26.33
2022-09-24T16:46:01.126Z,26.77
2022-09-24T16:48:27.526Z,27.23
2022-09-24T16:50:54.700Z,30.25
2022-09-24T16:53:21.085Z,31.83
2022-09-24T16:55:47.498Z,29.83
2022-09-24T16:58:13.956Z,31.95
2022-09-24T17:00:42.365Z,29.77
2022-09-24T17:03:10.807Z,29.27
2022-09-24T17:05:40.578Z,28.92
2022-09-24T17:08:07.007Z,27.20
2022-09-24T17:10:33.390Z,28.13
2022-09-24T17:13:01.598Z,27.38
2022-09-24T17:15:28.052Z,28.23
2022-09-24T17:17:54.541Z,26.23
2022-09-24T17:20:21.284Z,29.27
2022-09-24T17:22:48.922Z,30.40
2022-09-24T17:25:15.456Z,30.40
2022-09-24T17:27:41.857Z,29.83
2022-09-24T17:30:09.553Z,29.63
2022-09-24T17:32:35.939Z,27.00
2022-09-24T17:35:02.315Z,27.00
2022-09-24T17:37:29.069Z,28.48
2022-09-24T17:39:55.525Z,27.65
2022-09-24T17:42:21.945Z,30.80
2022-09-24T17:44:48.286Z,28.58
2022-09-24T17:47:14.784Z,28.67
2022-09-24T17:49:41.168Z,29.02
2022-09-24T17:52:07.569Z,30.13
2022-09-24T17:54:34.265Z,27.60
2022-09-24T17:57:01.887Z,29.60
2022-09-24T17:59:28.479Z,27.70
2022-09-24T18:01:55.017Z,27.77
2022-09-24T18:04:22.894Z,28.00
2022-09-24T18:06:49.689Z,27.65
2022-09-24T18:09:17.170Z,27.80
2022-09-24T18:11:47.327Z,30.50
2022-09-24T18:14:16.889Z,28.05
2022-09-24T18:16:44.116Z,28.58
2022-09-24T18:19:12.704Z,28.60
2022-09-24T18:21:39.335Z,28.67
2022-09-24T18:24:05.938Z,27.45
2022-09-24T18:26:35.187Z,26.80
2022-09-24T18:29:10.217Z,27.65
2022-09-24T18:31:37.829Z,29.20
2022-09-24T18:34:06.858Z,30.95
2022-09-24T18:36:38.549Z,26.70
2022-09-24T18:39:07.228Z,28.10
2022-09-24T18:41:34.588Z,28.13
2022-09-24T18:44:01.210Z,27.88
2022-09-24T18:46:29.200Z,27.50
2022-09-24T18:48:57.022Z,27.35
2022-09-24T18:51:29.043Z,25.15
2022-09-24T18:54:07.392Z,26.35
2022-09-24T18:56:34.170Z,26.33
2022-09-24T18:59:10.724Z,23.45
2022-09-24T19:01:38.126Z,22.83
2022-09-24T19:04:05.115Z,21.25
2022-09-24T19:06:34.485Z,21.77
2022-09-24T19:09:00.884Z,23.38
2022-09-24T19:11:28.040Z,22.48
2022-09-24T19:13:54.619Z,19.65
2022-09-24T19:16:25.514Z,21.25
2022-09-24T19:18:52.789Z,20.23
2022-09-24T19:21:19.384Z,20.10
2022-09-24T19:23:47.957Z,20.10
2022-09-24T19:26:20.219Z,20.45
2022-09-24T19:28:50.481Z,17.13
2022-09-24T19:31:29.850Z,16.15
2022-09-24T19:33:57.263Z,14.30
2022-09-24T19:36:23.803Z,12.80
2022-09-24T19:38:50.692Z,13.55
2022-09-24T19:41:21.307Z,12.27
2022-09-24T19:43:47.816Z,13.18
2022-09-24T19:46:16.725Z,14.85
2022-09-24T19:48:44.809Z,15.48
2022-09-24T19:51:19.167Z,14.23
2022-09-24T19:53:53.991Z,15.73
2022-09-24T19:56:23.214Z,14.05
2022-09-24T19:58:52.518Z,15.40
2022-09-24T20:01:19.853Z,13.55
2022-09-24T20:03:46.481Z,13.73
2022-09-24T20:06:18.257Z,13.25
2022-09-24T20:08:44.944Z,14.23
2022-09-24T20:11:18.748Z,14.15
2022-09-24T20:13:48.287Z,14.68
2022-09-24T20:16:19.358Z,15.15
2022-09-24T20:18:47.374Z,15.38
2022-09-24T20:21:13.950Z,13.57
2022-09-24T20:23:40.957Z,14.35
2022-09-24T20:26:26.731Z,15.60
2022-09-24T20:28:53.380Z,15.10
2022-09-24T20:31:20.973Z,15.18
2022-09-24T20:33:48.554Z,15.40
2022-09-24T20:36:18.794Z,16.55
2022-09-24T20:38:47.781Z,16.15
2022-09-24T20:41:19.153Z,17.65
2022-09-24T20:43:45.851Z,17.13
2022-09-24T20:46:16.547Z,18.20
2022-09-24T20:48:43.216Z,18.17
2022-09-24T20:51:11.490Z,18.67
2022-09-24T20:53:38.124Z,19.05
2022-09-24T20:56:05.876Z,19.13
2022-09-24T20:58:33.639Z,20.80
2022-09-24T21:01:00.308Z,20.60
2022-09-24T21:03:43.372Z,26.92
2022-09-24T21:06:11.681Z,23.75
2022-09-24T21:08:40.124Z,24.80
2022-09-24T21:11:10.568Z,23.83
2022-09-24T21:13:41.293Z,24.27
2022-09-24T21:16:09.394Z,26.88
2022-09-24T21:18:40.029Z,31.98
2022-09-24T21:21:08.617Z,34.03
2022-09-24T21:23:36.134Z,33.60
2022-09-24T21:26:18.359Z,34.88
2022-09-24T21:28:46.706Z,36.05
2022-09-24T21:31:14.726Z,37.95
2022-09-24T21:33:44.944Z,39.35
2022-09-24T21:36:12.681Z,40.92
2022-09-24T21:38:39.318Z,40.85
2022-09-24T21:41:08.296Z,37.55
2022-09-24T21:43:35.306Z,40.78
2022-09-24T21:46:06.492Z,38.95
2022-09-24T21:48:33.872Z,40.20
2022-09-24T21:51:09.375Z,38.63
2022-09-24T21:53:36.560Z,37.63
2022-09-24T21:56:04.016Z,34.55
2022-09-24T21:58:30.959Z,36.25
2022-09-24T22:01:04.330Z,34.53
2022-09-24T22:03:31.856Z,36.40
2022-09-24T22:06:00.127Z,33.80
2022-09-24T22:08:31.575Z,35.28
2022-09-24T22:11:03.682Z,34.80
2022-09-24T22:13:31.191Z,37.70
2022-09-24T22:15:59.778Z,35.92
2022-09-24T22:18:29.989Z,36.58
2022-09-24T22:20:57.358Z,35.92
2022-09-24T22:23:24.424Z,38.90
2022-09-24T22:25:55.643Z,37.88
2022-09-24T22:28:25.168Z,37.33
2022-09-24T22:30:56.853Z,39.80
2022-09-24T22:33:42.159Z,39.10
2022-09-24T22:36:08.608Z,42.45
2022-09-24T22:38:35.842Z,41.42
2022-09-24T22:41:03.664Z,43.15
2022-09-24T22:43:31.009Z,43.60
2022-09-24T22:46:02.310Z,42.20
2022-09-24T22:48:29.286Z,44.30
2022-09-24T22:50:56.064Z,43.45
2022-09-24T22:53:22.628Z,45.88
2022-09-24T22:55:52.615Z,48.65
2022-09-24T22:58:19.430Z,47.35
2022-09-24T23:00:45.863Z,45.17
2022-09-24T23:03:12.268Z,44.60
2022-09-24T23:05:39.078Z,47.10
2022-09-24T23:08:05.497Z,45.55
2022-09-24T23:10:31.880Z,44.70
2022-09-24T23:12:58.301Z,47.83
2022-09-24T23:15:25.452Z,39.67
2022-09-24T23:17:52.351Z,41.22
2022-09-24T23:20:18.742Z,46.28
2022-09-24T23:22:45.141Z,41.58
2022-09-24T23:25:11.521Z,38.00
2022-09-24T23:27:38.204Z,35.92
2022-09-24T23:30:05.277Z,35.85
2022-09-24T23:32:32.057Z,34.90
2022-09-24T23:34:58.439Z,26.70
2022-09-24T23:37:24.935Z,25.45
2022-09-24T23:39:51.361Z,30.90
2022-09-24T23:42:17.766Z,23.85
2022-09-24T23:44:45.300Z,25.33
2022-09-24T23:47:11.727Z,27.90
2022-09-24T23:49:38.204Z,23.95
2022-09-24T23:52:04.575Z,26.23
2022-09-24T23:54:31.204Z,30.55
2022-09-24T23:56:57.622Z,22.73
2022-09-24T23:59:24.019Z,23.73
